Time;durP1;ratioP1;P1;durP2;ratioP2;P2;SDS_P1;SDS_P2;PMS_P1;PMS_P2;Temp;Humidity;BMP_temperature;BMP_pressure;BME280_temperature;BME280_humidity;BME280_pressure;Samples;Min_cycle;Max_cycle;Signal;HPM_P1;HPM_P2
2023/03/21 00:00:49;;;;;;;;;1.00;1.00;;;;;20.68;56.13;100745.67;109526;1269;20201;-72
2023/03/21 00:03:22;;;;;;;;;1.00;1.00;;;;;20.68;56.09;100749.54;109452;1268;19530;-72
2023/03/21 00:05:52;;;;;;;;;1.00;1.00;;;;;20.68;56.05;100750.24;109489;1269;19360;-72
2023/03/21 00:08:19;;;;;;;;;1.00;1.00;;;;;20.67;56.12;100747.72;109498;1253;21452;-71
2023/03/21 00:10:46;;;;;;;;;1.00;1.00;;;;;20.68;55.96;100747.48;109454;1254;19712;-73
2023/03/21 00:13:14;;;;;;;;;1.00;1.00;;;;;20.67;56.03;100742.17;109467;1253;21970;-72
2023/03/21 00:15:50;;;;;;;;;1.00;1.00;;;;;20.67;56.14;100741.39;109499;1254;21766;-74
2023/03/21 00:18:17;;;;;;;;;2.00;1.00;;;;;20.68;55.96;100743.16;109529;1254;19665;-73
2023/03/21 00:20:46;;;;;;;;;1.00;1.00;;;;;20.68;56.05;100744.18;109505;1268;19410;-72
2023/03/21 00:23:13;;;;;;;;;1.00;1.00;;;;;20.68;56.09;100741.63;109545;1269;20128;-73
2023/03/21 00:25:40;;;;;;;;;1.00;1.00;;;;;20.69;55.96;100735.55;109554;1253;19620;-74
2023/03/21 00:28:08;;;;;;;;;1.00;1.00;;;;;20.69;56.10;100737.00;109524;1268;23666;-73
2023/03/21 00:30:35;;;;;;;;;1.00;1.00;;;;;20.69;55.93;100740.85;109531;1268;20163;-73
2023/03/21 00:33:02;;;;;;;;;1.00;1.00;;;;;20.69;56.05;100736.27;109524;1269;19744;-73
2023/03/21 00:35:30;;;;;;;;;1.00;1.00;;;;;20.69;55.77;100735.97;109536;1253;20746;-73
2023/03/21 00:37:57;;;;;;;;;1.00;1.00;;;;;20.69;56.13;100734.88;109571;1268;20178;-73
2023/03/21 00:40:24;;;;;;;;;1.00;1.00;;;;;20.69;56.16;100733.19;109614;1268;19375;-73
2023/03/21 00:42:52;;;;;;;;;1.00;1.00;;;;;20.69;56.09;100730.46;109592;1269;19865;-73
2023/03/21 00:45:20;;;;;;;;;1.00;1.00;;;;;20.70;56.00;100731.31;109555;1262;21650;-73
2023/03/21 00:47:48;;;;;;;;;1.00;1.00;;;;;20.69;55.80;100729.37;109539;1269;23439;-74
2023/03/21 00:50:15;;;;;;;;;2.00;1.00;;;;;20.68;55.99;100728.05;109529;1268;19406;-73
2023/03/21 00:52:42;;;;;;;;;1.00;1.00;;;;;20.69;55.93;100725.05;109489;1268;20527;-74
2023/03/21 00:55:10;;;;;;;;;1.00;1.00;;;;;20.69;55.91;100729.20;109488;1268;21773;-74
2023/03/21 00:57:37;;;;;;;;;1.00;1.00;;;;;20.68;55.97;100728.05;109479;1268;20702;-74
2023/03/21 01:00:06;;;;;;;;;1.00;1.00;;;;;20.68;55.87;100724.42;109524;1253;23172;-74
2023/03/21 01:02:34;;;;;;;;;1.00;1.00;;;;;20.69;55.87;100727.94;109550;1253;19715;-74
2023/03/21 01:05:01;;;;;;;;;1.00;1.00;;;;;20.70;55.94;100732.23;109532;1253;22019;-74
2023/03/21 01:07:28;;;;;;;;;1.00;1.00;;;;;20.68;55.98;100726.20;109481;1254;21564;-74
2023/03/21 01:09:56;;;;;;;;;1.00;1.00;;;;;20.69;56.05;100729.27;109447;1253;19628;-74
2023/03/21 01:12:23;;;;;;;;;1.00;1.00;;;;;20.68;55.78;100725.11;109476;1253;23765;-73
2023/03/21 01:14:50;;;;;;;;;1.00;1.00;;;;;20.69;55.92;100726.92;109480;1268;21560;-73
2023/03/21 01:17:17;;;;;;;;;1.00;1.00;;;;;20.69;55.85;100725.59;109540;1269;19265;-72
2023/03/21 01:19:45;;;;;;;;;1.00;1.00;;;;;20.70;55.80;100722.96;109533;1253;20710;-74
2023/03/21 01:22:12;;;;;;;;;1.00;1.00;;;;;20.69;55.89;100727.42;109495;1268;20040;-74
2023/03/21 01:24:39;;;;;;;;;1.00;1.00;;;;;20.69;55.87;100724.47;109473;1268;20191;-73
2023/03/21 01:27:07;;;;;;;;;1.00;1.00;;;;;20.69;55.92;100723.92;109504;1253;20836;-74
2023/03/21 01:29:34;;;;;;;;;1.00;1.00;;;;;20.69;55.78;100719.80;109526;1269;23291;-73
2023/03/21 01:32:01;;;;;;;;;1.00;1.00;;;;;20.69;55.93;100722.11;109495;1254;19613;-74
2023/03/21 01:34:29;;;;;;;;;1.00;1.00;;;;;20.71;55.70;100724.95;109495;1269;19370;-73
2023/03/21 01:36:56;;;;;;;;;1.00;1.00;;;;;20.71;55.83;100721.98;109475;1268;20533;-73
2023/03/21 01:39:23;;;;;;;;;1.00;1.00;;;;;20.71;55.56;100718.48;109488;1269;23534;-74
2023/03/21 01:41:51;;;;;;;;;1.00;1.00;;;;;20.68;55.83;100718.82;109537;1254;20752;-74
2023/03/21 01:44:18;;;;;;;;;1.00;1.00;;;;;20.69;55.89;100720.02;109528;1254;22176;-74
2023/03/21 01:46:48;;;;;;;;;1.00;1.00;;;;;20.68;55.91;100719.16;109567;1269;19053;-74
2023/03/21 01:49:15;;;;;;;;;1.00;1.00;;;;;20.69;55.70;100717.94;109574;1253;20751;-73
2023/03/21 01:51:42;;;;;;;;;1.00;1.00;;;;;20.69;55.61;100712.48;109526;1269;20584;-74
2023/03/21 01:54:10;;;;;;;;;1.00;1.00;;;;;20.68;55.67;100715.14;109443;1253;23753;-74
2023/03/21 01:56:37;;;;;;;;;1.00;1.00;;;;;20.67;55.89;100713.83;109477;1268;19734;-74
2023/03/21 01:59:05;;;;;;;;;1.00;1.00;;;;;20.69;55.61;100720.36;109490;1269;20170;-74
2023/03/21 02:01:33;;;;;;;;;1.00;1.00;;;;;20.69;55.70;100720.86;109538;1253;19689;-75
2023/03/21 02:04:02;;;;;;;;;1.00;1.00;;;;;20.69;55.64;100715.07;109582;1253;19359;-74
2023/03/21 02:06:30;;;;;;;;;1.00;1.00;;;;;20.68;55.69;100715.17;109511;1253;20614;-73
2023/03/21 02:08:58;;;;;;;;;1.00;1.00;;;;;20.68;55.64;100714.05;109530;1253;19652;-73
2023/03/21 02:11:25;;;;;;;;;1.00;1.00;;;;;20.70;55.63;100718.98;109532;1269;19408;-73
2023/03/21 02:13:53;;;;;;;;;1.00;1.00;;;;;20.69;55.52;100721.10;109518;1253;21611;-72
2023/03/21 02:16:20;;;;;;;;;1.00;1.00;;;;;20.68;55.45;100718.61;109510;1268;23067;-73
2023/03/21 02:18:48;;;;;;;;;1.50;1.00;;;;;20.68;55.46;100715.76;109515;1253;20806;-73
2023/03/21 02:21:15;;;;;;;;;1.00;1.00;;;;;20.69;55.58;100718.91;109503;1269;22751;-73
2023/03/21 02:23:42;;;;;;;;;1.00;1.00;;;;;20.68;55.63;100718.98;109436;1269;19535;-73
2023/03/21 02:26:10;;;;;;;;;1.00;1.00;;;;;20.68;55.69;100724.20;109513;1254;22977;-73
2023/03/21 02:28:37;;;;;;;;;1.00;1.00;;;;;20.69;55.65;100722.12;109496;1254;21545;-73
2023/03/21 02:31:05;;;;;;;;;1.00;1.00;;;;;20.69;55.65;100721.81;109483;1253;23068;-73
2023/03/21 02:33:32;;;;;;;;;1.00;1.00;;;;;20.68;55.55;100722.18;109469;1269;19360;-73
2023/03/21 02:36:00;;;;;;;;;1.00;1.00;;;;;20.68;55.47;100722.23;109491;1269;21388;-72
2023/03/21 02:38:29;;;;;;;;;1.00;1.00;;;;;20.69;55.56;100726.02;109486;1269;19492;-72
2023/03/21 02:40:56;;;;;;;;;1.00;1.00;;;;;20.69;55.57;100728.70;109508;1269;23527;-73
2023/03/21 02:43:24;;;;;;;;;1.00;1.00;;;;;20.69;55.50;100722.56;109500;1254;21727;-73
2023/03/21 02:45:51;;;;;;;;;1.00;1.00;;;;;20.69;55.62;100727.46;109513;1269;19600;-73
2023/03/21 02:48:19;;;;;;;;;1.00;1.00;;;;;20.68;55.52;100727.49;109520;1253;19387;-72
2023/03/21 02:50:46;;;;;;;;;1.00;1.00;;;;;20.68;55.40;100726.76;109483;1268;20152;-73
2023/03/21 02:53:14;;;;;;;;;1.00;1.00;;;;;20.68;55.33;100724.73;109518;1268;19161;-74
2023/03/21 02:55:41;;;;;;;;;1.00;1.00;;;;;20.68;55.27;100721.34;109526;1254;21259;-74
2023/03/21 02:58:09;;;;;;;;;1.00;1.00;;;;;20.68;55.46;100723.86;109518;1253;22700;-74
2023/03/21 03:00:36;;;;;;;;;1.00;1.00;;;;;20.68;55.50;100721.21;109516;1268;19595;-74
2023/03/21 03:03:04;;;;;;;;;1.00;1.00;;;;;20.69;55.38;100722.36;109469;1269;19279;-74
2023/03/21 03:05:32;;;;;;;;;1.00;1.00;;;;;20.68;55.48;100725.15;109471;1260;23722;-74
2023/03/21 03:07:59;;;;;;;;;1.00;1.00;;;;;20.69;55.33;100722.40;109464;1254;19621;-73
2023/03/21 03:10:27;;;;;;;;;1.00;1.00;;;;;20.68;55.52;100718.95;109471;1268;19589;-74
2023/03/21 03:12:54;;;;;;;;;2.00;1.00;;;;;20.68;55.48;100720.28;109488;1253;21561;-74
2023/03/21 03:15:22;;;;;;;;;1.00;1.00;;;;;20.67;55.56;100722.36;109522;1269;19431;-74
2023/03/21 03:17:50;;;;;;;;;1.00;1.00;;;;;20.68;55.38;100720.66;109499;1269;23008;-74
2023/03/21 03:20:17;;;;;;;;;2.00;1.00;;;;;20.66;55.47;100719.04;109480;1254;21565;-74
2023/03/21 03:22:44;;;;;;;;;1.00;1.00;;;;;20.66;55.52;100717.20;109529;1268;19305;-72
2023/03/21 03:25:12;;;;;;;;;1.00;1.00;;;;;20.67;55.35;100717.70;109513;1263;19398;-73
2023/03/21 03:27:39;;;;;;;;;1.00;1.00;;;;;20.67;55.34;100716.00;109511;1252;22674;-73
2023/03/21 03:30:06;;;;;;;;;1.00;1.00;;;;;20.67;55.51;100717.30;109483;1269;19288;-73
2023/03/21 03:32:34;;;;;;;;;1.00;1.00;;;;;20.67;55.48;100713.52;109506;1269;21501;-73
2023/03/21 03:35:04;;;;;;;;;1.00;1.00;;;;;20.67;55.43;100714.81;109488;1253;21629;-73
2023/03/21 03:37:32;;;;;;;;;2.00;1.00;;;;;20.68;55.31;100713.23;109487;1253;20847;-72
2023/03/21 03:39:59;;;;;;;;;1.00;1.00;;;;;20.67;55.31;100712.39;109481;1268;21826;-73
2023/03/21 03:42:27;;;;;;;;;1.00;1.00;;;;;20.67;55.31;100710.38;109497;1260;21573;-73
2023/03/21 03:44:54;;;;;;;;;1.00;1.00;;;;;20.67;55.49;100713.17;109488;1262;19125;-73
2023/03/21 03:47:21;;;;;;;;;1.00;1.00;;;;;20.66;55.26;100715.60;109462;1254;23458;-73
2023/03/21 03:49:49;;;;;;;;;2.00;2.00;;;;;20.66;55.45;100718.33;109468;1254;21448;-73
2023/03/21 03:52:16;;;;;;;;;1.00;1.00;;;;;20.67;55.49;100719.52;109492;1253;19647;-73
2023/03/21 03:54:43;;;;;;;;;1.00;1.00;;;;;20.65;55.31;100717.14;109464;1269;23113;-73
2023/03/21 03:57:12;;;;;;;;;1.00;1.00;;;;;20.66;55.41;100718.45;109471;1253;23102;-73
2023/03/21 03:59:40;;;;;;;;;1.00;1.00;;;;;20.67;55.50;100724.21;109511;1253;19148;-73
2023/03/21 04:02:07;;;;;;;;;1.00;1.00;;;;;20.67;55.16;100722.78;109499;1253;22965;-72
2023/03/21 04:04:35;;;;;;;;;1.00;1.00;;;;;20.65;55.42;100721.88;109514;1268;20721;-73
2023/03/21 04:07:03;;;;;;;;;1.00;1.00;;;;;20.66;55.34;100723.61;109494;1269;22305;-72
2023/03/21 04:09:30;;;;;;;;;1.00;1.00;;;;;20.66;55.37;100726.56;109549;1268;19375;-73
2023/03/21 04:11:57;;;;;;;;;1.00;1.00;;;;;20.66;55.36;100726.84;109482;1269;21627;-73
2023/03/21 04:14:25;;;;;;;;;1.00;1.00;;;;;20.67;55.24;100724.38;109505;1260;19167;-73
2023/03/21 04:16:53;;;;;;;;;1.00;1.00;;;;;20.67;55.35;100720.86;109493;1254;19291;-74
2023/03/21 04:19:20;;;;;;;;;1.00;1.00;;;;;20.66;55.23;100721.25;109482;1268;22027;-72
2023/03/21 04:21:48;;;;;;;;;1.00;1.00;;;;;20.66;55.42;100722.52;109474;1253;19686;-73
2023/03/21 04:24:16;;;;;;;;;2.00;1.00;;;;;20.66;55.27;100725.62;109504;1269;23759;-73
2023/03/21 04:26:43;;;;;;;;;1.00;1.00;;;;;20.66;55.25;100726.27;109502;1268;21484;-72
2023/03/21 04:29:10;;;;;;;;;1.00;1.00;;;;;20.65;55.42;100724.98;109565;1254;20712;-74
2023/03/21 04:31:40;;;;;;;;;1.00;1.00;;;;;20.65;55.31;100718.67;109536;1269;19430;-74
2023/03/21 04:34:08;;;;;;;;;1.00;1.00;;;;;20.65;55.24;100727.84;109535;1253;21549;-74
2023/03/21 04:36:41;;;;;;;;;1.00;1.00;;;;;20.65;55.06;100728.65;109549;1269;19814;-74
2023/03/21 04:39:11;;;;;;;;;1.00;1.00;;;;;20.66;55.30;100732.48;109500;1253;20832;-74
2023/03/21 04:41:39;;;;;;;;;1.00;1.00;;;;;20.64;55.20;100731.75;109510;1268;21846;-73
2023/03/21 04:44:06;;;;;;;;;1.00;1.00;;;;;20.64;55.40;100729.77;109550;1253;19615;-73
2023/03/21 04:46:33;;;;;;;;;1.00;1.00;;;;;20.66;55.18;100735.80;109537;1254;20807;-74
2023/03/21 04:49:01;;;;;;;;;1.00;1.00;;;;;20.66;55.26;100739.27;109557;1269;23138;-73
2023/03/21 04:51:28;;;;;;;;;1.00;1.00;;;;;20.66;55.01;100740.73;109523;1268;19052;-73
2023/03/21 04:53:56;;;;;;;;;2.00;1.00;;;;;20.65;55.14;100744.00;109508;1268;19403;-73
2023/03/21 04:56:29;;;;;;;;;1.00;1.00;;;;;20.65;55.20;100745.34;109485;1263;20222;-74
2023/03/21 04:58:57;;;;;;;;;1.00;1.00;;;;;20.65;55.25;100745.70;109471;1253;19609;-73
2023/03/21 05:01:24;;;;;;;;;1.00;1.00;;;;;20.65;55.06;100746.02;109515;1269;19407;-73
2023/03/21 05:03:51;;;;;;;;;1.00;1.00;;;;;20.66;55.11;100748.86;109532;1269;21479;-73
2023/03/21 05:06:19;;;;;;;;;1.00;1.00;;;;;20.65;55.04;100750.54;109508;1268;19566;-73
2023/03/21 05:08:47;;;;;;;;;1.00;1.00;;;;;20.65;55.22;100752.42;109324;1269;19691;-73
2023/03/21 05:11:14;;;;;;;;;1.00;1.00;;;;;20.64;55.22;100757.45;109503;1269;21739;-74
2023/03/21 05:13:42;;;;;;;;;1.00;1.00;;;;;20.64;55.16;100755.77;109508;1254;19669;-74
2023/03/21 05:16:09;;;;;;;;;1.00;1.00;;;;;20.64;55.08;100761.02;109541;1253;20775;-74
2023/03/21 05:18:37;;;;;;;;;1.00;1.00;;;;;20.64;55.10;100762.46;109600;1268;20161;-74
2023/03/21 05:21:06;;;;;;;;;1.00;1.00;;;;;20.64;55.21;100763.23;109548;1268;19308;-74
2023/03/21 05:23:37;;;;;;;;;1.00;1.00;;;;;20.64;55.16;100762.86;109491;1253;20760;-74
2023/03/21 05:26:04;;;;;;;;;1.00;1.00;;;;;20.63;55.12;100764.02;109501;1253;23588;-74
2023/03/21 05:28:35;;;;;;;;;1.00;1.00;;;;;20.64;55.12;100767.23;109516;1269;19067;-74
2023/03/21 05:31:02;;;;;;;;;2.00;1.00;;;;;20.64;55.02;100765.21;109555;1253;20874;-74
2023/03/21 05:33:29;;;;;;;;;1.00;1.00;;;;;20.65;55.22;100766.27;109543;1254;21840;-74
2023/03/21 05:35:57;;;;;;;;;2.00;2.00;;;;;20.64;55.04;100770.63;109502;1254;19682;-74
2023/03/21 05:38:24;;;;;;;;;1.00;1.00;;;;;20.64;55.16;100777.05;109461;1268;19551;-74
2023/03/21 05:40:52;;;;;;;;;1.00;1.00;;;;;20.64;55.20;100776.32;109476;1269;20839;-74
2023/03/21 05:43:19;;;;;;;;;1.00;1.00;;;;;20.65;55.10;100779.98;109512;1268;19343;-73
2023/03/21 05:45:47;;;;;;;;;1.00;1.00;;;;;20.64;55.09;100782.64;109476;1268;22530;-74
2023/03/21 05:48:14;;;;;;;;;1.00;1.00;;;;;20.64;55.02;100785.94;109467;1253;21594;-74
2023/03/21 05:50:41;;;;;;;;;1.00;1.00;;;;;20.64;54.98;100786.80;109509;1254;19719;-74
2023/03/21 05:53:09;;;;;;;;;1.00;1.00;;;;;20.64;55.10;100790.23;109502;1268;19394;-74
2023/03/21 05:55:36;;;;;;;;;;;;;;;20.65;55.05;100788.49;109499;1253;22373;-74
2023/03/21 05:58:03;;;;;;;;;1.00;1.00;;;;;20.69;54.99;100788.79;109542;1260;19313;-74
2023/03/21 06:00:31;;;;;;;;;1.00;1.00;;;;;20.76;54.87;100790.09;109500;1253;20778;-74
2023/03/21 06:02:58;;;;;;;;;2.00;2.00;;;;;20.80;55.51;100794.26;109505;1269;20161;-74
2023/03/21 06:05:26;;;;;;;;;43.50;42.00;;;;;20.80;55.98;100794.05;109527;1261;19261;-75
2023/03/21 06:07:53;;;;;;;;;52.00;48.00;;;;;20.84;56.32;100792.92;109499;1268;21981;-74
2023/03/21 06:10:20;;;;;;;;;60.00;53.00;;;;;20.83;56.40;100794.80;109497;1269;22533;-75
2023/03/21 06:12:48;;;;;;;;;37.50;36.00;;;;;20.78;56.80;100796.15;109491;1269;19809;-76
2023/03/21 06:15:15;;;;;;;;;32.50;30.00;;;;;20.67;56.38;100796.07;109509;1260;21054;-74
2023/03/21 06:17:42;;;;;;;;;28.00;26.00;;;;;20.62;55.93;100801.80;109537;1253;22256;-76
2023/03/21 06:20:10;;;;;;;;;23.00;22.00;;;;;20.57;55.17;100808.28;109526;1268;19281;-74
2023/03/21 06:22:37;;;;;;;;;20.00;17.00;;;;;20.53;54.35;100811.27;109509;1268;22372;-74
2023/03/21 06:25:06;;;;;;;;;16.50;16.00;;;;;20.46;53.48;100808.06;109461;1253;21686;-74
2023/03/21 06:27:33;;;;;;;;;15.00;15.00;;;;;20.38;52.61;100809.12;109489;1254;20070;-74
2023/03/21 06:30:01;;;;;;;;;13.00;11.00;;;;;20.32;52.18;100807.48;109458;1253;20815;-74
2023/03/21 06:32:28;;;;;;;;;15.67;13.67;;;;;20.30;51.40;100804.98;109537;1268;20199;-74
2023/03/21 06:34:55;;;;;;;;;16.00;14.00;;;;;20.27;50.83;100807.29;109510;1268;23448;-74
2023/03/21 06:37:22;;;;;;;;;14.00;13.00;;;;;20.24;50.40;100808.94;109535;1254;20857;-74
2023/03/21 06:39:50;;;;;;;;;10.50;9.00;;;;;20.22;49.83;100813.67;109499;1253;22756;-75
2023/03/21 06:42:17;;;;;;;;;10.00;10.00;;;;;20.20;49.95;100816.27;109549;1269;20660;-76
2023/03/21 06:44:44;;;;;;;;;8.00;8.00;;;;;20.23;50.19;100818.87;109546;1254;23595;-74
2023/03/21 06:47:12;;;;;;;;;10.50;10.00;;;;;20.26;50.53;100819.35;109508;1253;21879;-74
2023/03/21 06:49:39;;;;;;;;;9.33;8.00;;;;;20.28;51.17;100815.52;109468;1268;19536;-75
2023/03/21 06:52:07;;;;;;;;;7.67;7.00;;;;;20.33;50.98;100818.13;109463;1259;22429;-73
2023/03/21 06:54:35;;;;;;;;;10.00;8.00;;;;;20.38;51.11;100821.88;109480;1260;21625;-75
2023/03/21 06:57:02;;;;;;;;;8.00;7.00;;;;;20.41;51.00;100826.36;109442;1269;19358;-78
2023/03/21 06:59:30;;;;;;;;;8.00;7.00;;;;;20.43;51.32;100830.95;109464;1253;21077;-78
2023/03/21 07:01:57;;;;;;;;;10.00;8.00;;;;;20.41;50.95;100833.30;109496;1253;21581;-78
2023/03/21 07:04:25;;;;;;;;;11.00;11.00;;;;;20.33;51.07;100834.40;109498;1268;19146;-78
2023/03/21 07:06:53;;;;;;;;;11.00;11.00;;;;;20.27;50.75;100835.98;109485;1253;22367;-78
2023/03/21 07:09:23;;;;;;;;;13.00;8.00;;;;;20.25;50.36;100841.11;109516;1254;21543;-78
2023/03/21 07:11:52;;;;;;;;;10.50;9.00;;;;;20.22;49.86;100843.09;109469;1253;23147;-78
2023/03/21 07:14:19;;;;;;;;;13.00;10.00;;;;;20.20;49.55;100843.86;109434;1268;19443;-78
2023/03/21 07:16:47;;;;;;;;;10.00;8.00;;;;;20.16;49.48;100845.31;109483;1269;20187;-74
2023/03/21 07:19:14;;;;;;;;;13.00;11.00;;;;;20.11;49.00;100844.52;109533;1253;19268;-74
2023/03/21 07:21:42;;;;;;;;;10.00;7.00;;;;;20.16;49.41;100844.48;109453;1268;19453;-74
2023/03/21 07:24:09;;;;;;;;;8.00;7.00;;;;;20.23;49.24;100847.30;109475;1260;23320;-74
2023/03/21 07:26:36;;;;;;;;;5.00;5.00;;;;;20.29;49.26;100846.80;109498;1268;19226;-74
2023/03/21 07:29:04;;;;;;;;;7.00;7.00;;;;;20.34;49.47;100847.51;109464;1254;20770;-74
2023/03/21 07:31:31;;;;;;;;;5.00;4.00;;;;;20.39;49.66;100847.93;109498;1254;22560;-71
2023/03/21 07:33:59;;;;;;;;;5.00;5.00;;;;;20.40;49.72;100850.83;109500;1253;19351;-72
2023/03/21 07:36:26;;;;;;;;;6.00;5.00;;;;;20.41;50.12;100855.27;109513;1253;20839;-72
2023/03/21 07:38:54;;;;;;;;;11.00;8.00;;;;;20.38;49.96;100854.58;109524;1253;21719;-72
2023/03/21 07:41:21;;;;;;;;;13.00;10.00;;;;;20.33;49.96;100852.02;109478;1268;19231;-71
2023/03/21 07:43:48;;;;;;;;;14.00;11.00;;;;;20.30;49.57;100851.13;109535;1253;24345;-72
2023/03/21 07:46:16;;;;;;;;;12.00;11.00;;;;;20.27;49.27;100854.25;109491;1261;21673;-72
2023/03/21 07:48:43;;;;;;;;;11.00;10.00;;;;;20.26;49.30;100855.33;109483;1268;19954;-72
2023/03/21 07:51:11;;;;;;;;;13.00;11.00;;;;;20.24;49.21;100854.05;109488;1254;20819;-69
2023/03/21 07:53:40;;;;;;;;;10.50;10.50;;;;;20.24;48.88;100851.18;109514;1268;20149;-76
2023/03/21 07:56:08;;;;;;;;;10.00;9.50;;;;;20.25;48.88;100857.76;109545;1253;21898;-73
2023/03/21 07:58:35;;;;;;;;;13.00;8.00;;;;;20.28;48.61;100857.96;109513;1254;21903;-73
2023/03/21 08:01:02;;;;;;;;;11.00;10.00;;;;;20.33;48.88;100859.58;109535;1268;21612;-73
2023/03/21 08:03:31;;;;;;;;;12.00;10.00;;;;;20.38;49.12;100861.21;109536;1254;23607;-77
2023/03/21 08:05:59;;;;;;;;;7.00;7.00;;;;;20.45;49.26;100866.96;109542;1269;23352;-74
2023/03/21 08:08:26;;;;;;;;;10.00;8.00;;;;;20.50;49.33;100865.18;109551;1268;20104;-72
2023/03/21 08:10:54;;;;;;;;;10.00;7.00;;;;;20.52;49.43;100866.23;109554;1253;19733;-74
2023/03/21 08:13:21;;;;;;;;;5.00;5.00;;;;;20.54;49.80;100866.73;109536;1269;20978;-72
2023/03/21 08:15:49;;;;;;;;;7.00;7.00;;;;;20.55;49.78;100869.02;109547;1268;21769;-72
2023/03/21 08:18:16;;;;;;;;;5.00;5.00;;;;;20.56;50.16;100866.66;109533;1263;19848;-72
2023/03/21 08:20:43;;;;;;;;;7.50;5.00;;;;;20.57;50.59;100865.54;109494;1269;20926;-72
2023/03/21 08:23:12;;;;;;;;;7.00;5.67;;;;;20.58;50.81;100869.81;109492;1260;22449;-76
2023/03/21 08:25:40;;;;;;;;;5.00;5.00;;;;;20.59;51.04;100873.35;109077;1268;572833;-73
2023/03/21 08:28:07;;;;;;;;;5.00;4.00;;;;;20.60;51.09;100875.30;109505;1268;21461;-72
2023/03/21 08:30:34;;;;;;;;;7.00;5.00;;;;;20.60;51.40;100877.93;109514;1253;21530;-72
2023/03/21 08:33:02;;;;;;;;;8.00;5.00;;;;;20.60;51.81;100883.35;109551;1252;19180;-74
2023/03/21 08:35:30;;;;;;;;;6.00;5.00;;;;;20.61;51.75;100884.13;109554;1261;20962;-72
2023/03/21 08:37:57;;;;;;;;;5.00;5.00;;;;;20.61;52.01;100885.63;109552;1269;20152;-73
2023/03/21 08:40:26;;;;;;;;;4.50;4.50;;;;;20.62;51.77;100888.95;109339;1269;22927;-73
2023/03/21 08:42:53;;;;;;;;;5.50;5.00;;;;;20.63;52.05;100891.02;109561;1269;21038;-73
2023/03/21 08:45:21;;;;;;;;;4.50;4.00;;;;;20.63;52.14;100889.36;109505;1268;20248;-73
2023/03/21 08:47:49;;;;;;;;;7.00;5.00;;;;;20.62;52.26;100887.28;109615;1253;19632;-73
2023/03/21 08:50:16;;;;;;;;;10.00;7.00;;;;;20.63;52.34;100887.73;109567;1268;19386;-76
2023/03/21 08:52:43;;;;;;;;;4.00;4.00;;;;;20.63;52.28;100889.88;109534;1268;21789;-73
2023/03/21 08:55:11;;;;;;;;;4.00;4.00;;;;;20.61;52.25;100894.64;109548;1253;21358;-73
2023/03/21 08:57:38;;;;;;;;;4.00;4.00;;;;;20.62;52.33;100896.48;109518;1268;21010;-72
2023/03/21 09:00:09;;;;;;;;;5.00;5.00;;;;;20.66;52.12;100897.77;109525;1253;21519;-71
2023/03/21 09:02:37;;;;;;;;;2.00;2.00;;;;;20.66;52.48;100899.67;109470;1269;19585;-74
2023/03/21 09:05:04;;;;;;;;;32.00;31.00;;;;;20.66;52.39;100898.41;109484;1268;23527;-73
2023/03/21 09:07:33;;;;;;;;;;;;;;;20.67;52.37;100909.24;109512;1253;22778;-73
2023/03/21 09:10:00;;;;;;;;;147.00;106.00;;;;;20.68;52.37;100906.23;109539;1269;20026;-74
2023/03/21 09:12:28;;;;;;;;;116.00;92.00;;;;;20.69;52.71;100908.13;109506;1268;19441;-74
2023/03/21 09:14:55;;;;;;;;;122.50;87.50;;;;;20.69;52.69;100905.72;109486;1262;22475;-70
2023/03/21 09:17:22;;;;;;;;;102.00;73.00;;;;;20.70;52.88;100912.64;109513;1268;23702;-70
2023/03/21 09:19:50;;;;;;;;;101.67;72.00;;;;;20.67;52.83;100907.23;109477;1268;21025;-70
2023/03/21 09:22:17;;;;;;;;;73.00;56.00;;;;;20.63;52.61;100913.88;109484;1253;21545;-70
2023/03/21 09:24:46;;;;;;;;;60.00;47.00;;;;;20.57;52.15;100911.13;109472;1253;20448;-70
2023/03/21 09:27:14;;;;;;;;;53.50;41.50;;;;;20.53;51.47;100910.41;109514;1253;22322;-72
2023/03/21 09:29:43;;;;;;;;;42.00;32.00;;;;;20.50;50.44;100912.52;109537;1254;21562;-73
2023/03/21 09:32:12;;;;;;;;;43.00;36.00;;;;;20.50;50.23;100916.13;109499;1253;21446;-74
2023/03/21 09:34:40;;;;;;;;;33.00;29.00;;;;;20.54;50.18;100912.32;109571;1253;22043;-75
2023/03/21 09:37:08;;;;;;;;;32.00;26.00;;;;;20.58;50.14;100911.02;109546;1253;22655;-79
2023/03/21 09:39:36;;;;;;;;;;;;;;;20.60;50.21;100914.73;109533;1254;23653;-71
2023/03/21 09:42:04;;;;;;;;;35.00;24.00;;;;;20.59;50.22;100914.84;109560;1269;19038;-71
2023/03/21 09:44:31;;;;;;;;;19.00;16.00;;;;;20.56;50.12;100912.80;109539;1268;20532;-75
2023/03/21 09:46:59;;;;;;;;;19.00;17.00;;;;;20.52;49.38;100909.94;109512;1268;23006;-75
2023/03/21 09:49:29;;;;;;;;;17.00;16.00;;;;;20.52;49.18;100911.20;109499;1253;23191;-84
2023/03/21 09:51:57;;;;;;;;;14.00;14.00;;;;;20.57;49.32;100914.76;109504;1264;23450;-85
2023/03/21 09:54:26;;;;;;;;;14.00;13.50;;;;;20.59;49.33;100921.06;109540;1260;20116;-83
2023/03/21 09:56:53;;;;;;;;;9.00;8.00;;;;;20.57;48.89;100919.05;109508;1268;21911;-78
2023/03/21 09:59:20;;;;;;;;;11.67;10.67;;;;;20.52;48.45;100916.72;109532;1269;20585;-83
2023/03/21 10:01:48;;;;;;;;;10.00;10.00;;;;;20.49;48.25;100918.27;109521;1252;24216;-80
2023/03/21 10:04:17;;;;;;;;;11.00;11.00;;;;;20.46;47.99;100917.14;109522;1262;23011;-81
2023/03/21 10:06:45;;;;;;;;;9.00;8.00;;;;;20.44;47.81;100918.85;109533;1268;22098;-83
2023/03/21 10:09:12;;;;;;;;;13.00;10.00;;;;;20.43;47.55;100919.17;109503;1261;23280;-83
2023/03/21 10:11:40;;;;;;;;;11.00;11.00;;;;;20.40;47.13;100915.80;109499;1254;22243;-80
2023/03/21 10:14:07;;;;;;;;;10.00;7.00;;;;;20.40;46.59;100914.75;109505;1269;20411;-86
2023/03/21 10:16:35;;;;;;;;;9.00;8.00;;;;;20.36;46.28;100913.89;109549;1254;23512;-84
2023/03/21 10:19:02;;;;;;;;;8.00;7.00;;;;;20.33;46.22;100914.80;109582;1254;23138;-84
2023/03/21 10:21:30;;;;;;;;;7.00;7.00;;;;;20.31;45.81;100916.67;109594;1254;21583;-84
2023/03/21 10:23:57;;;;;;;;;7.00;6.00;;;;;20.29;45.78;100918.86;109612;1268;20230;-85
2023/03/21 10:26:25;;;;;;;;;7.50;5.00;;;;;20.27;45.41;100922.52;109624;1268;19459;-84
2023/03/21 10:28:52;;;;;;;;;4.00;4.00;;;;;20.27;45.30;100922.33;109643;1268;20150;-84
2023/03/21 10:31:20;;;;;;;;;4.00;4.00;;;;;20.25;44.95;100922.87;109595;1253;19714;-85
2023/03/21 10:33:47;;;;;;;;;5.50;5.00;;;;;20.24;44.90;100922.84;109597;1253;20985;-82
2023/03/21 10:36:15;;;;;;;;;7.00;5.00;;;;;20.24;44.81;100924.84;109594;1253;21563;-84
2023/03/21 10:38:43;;;;;;;;;6.00;5.00;;;;;20.23;44.59;100920.29;109649;1253;23045;-85
2023/03/21 10:41:10;;;;;;;;;4.00;4.00;;;;;20.24;44.81;100921.79;109646;1253;22966;-87
2023/03/21 10:43:39;;;;;;;;;7.00;5.00;;;;;20.24;44.60;100916.58;109586;1268;23128;-79
2023/03/21 10:46:07;;;;;;;;;5.00;4.50;;;;;20.22;44.51;100917.77;109523;1269;20648;-79
2023/03/21 10:48:34;;;;;;;;;6.00;6.00;;;;;20.22;44.01;100917.80;109539;1253;22979;-78
2023/03/21 10:51:02;;;;;;;;;4.00;4.00;;;;;20.18;43.82;100914.77;109539;1268;20178;-79
2023/03/21 10:53:29;;;;;;;;;4.00;4.00;;;;;20.16;43.62;100915.78;109557;1253;19191;-77
2023/03/21 10:55:56;;;;;;;;;4.00;4.00;;;;;20.07;43.13;100913.89;109542;1269;19772;-76
2023/03/21 10:58:26;;;;;;;;;6.00;6.00;;;;;19.95;43.02;100910.92;109554;1268;23288;-76
2023/03/21 11:00:53;;;;;;;;;6.00;6.00;;;;;19.84;42.33;100911.98;109554;1260;19708;-77
2023/03/21 11:03:21;;;;;;;;;6.00;6.00;;;;;19.81;42.08;100907.33;109585;1254;20862;-76
2023/03/21 11:05:49;;;;;;;;;6.00;6.00;;;;;19.75;41.70;100905.80;109580;1253;22571;-75
2023/03/21 11:08:16;;;;;;;;;6.50;6.50;;;;;19.66;41.50;100914.57;109569;1254;23112;-76
2023/03/21 11:10:44;;;;;;;;;4.00;4.00;;;;;19.65;41.22;100914.15;109566;1269;22813;-75
2023/03/21 11:13:11;;;;;;;;;6.00;6.00;;;;;19.62;41.15;100914.95;109517;1268;21335;-76
2023/03/21 11:15:38;;;;;;;;;6.00;5.00;;;;;19.62;40.85;100915.14;109555;1268;19345;-76